Time;durP1;ratioP1;P1;durP2;ratioP2;P2;SDS_P1;SDS_P2;PMS_P1;PMS_P2;Temp;Humidity;BMP_temperature;BMP_pressure;BME280_temperature;BME280_humidity;BME280_pressure;Samples;Min_cycle;Max_cycle;Signal;HPM_P1;HPM_P2
2021/10/14 00:02:27;;;;;;;1.83;1.52;;;18.20;52.10;;;;;;5070986;28;20277;-49
2021/10/14 00:04:59;;;;;;;2.50;1.70;;;18.20;52.20;;;;;;5071491;28;20627;-49
2021/10/14 00:07:30;;;;;;;2.30;1.90;;;18.20;52.20;;;;;;5071443;28;20282;-51
2021/10/14 00:10:00;;;;;;;3.80;1.90;;;18.30;52.10;;;;;;5071215;28;20249;-52
2021/10/14 00:12:31;;;;;;;2.08;1.42;;;18.30;52.00;;;;;;5088588;28;20298;-51
2021/10/14 00:15:01;;;;;;;2.70;1.70;;;18.30;52.00;;;;;;5071674;28;20682;-49
2021/10/14 00:17:32;;;;;;;2.17;1.60;;;18.30;52.00;;;;;;5070160;28;20234;-47
2021/10/14 00:20:05;;;;;;;2.83;1.42;;;18.40;52.20;;;;;;5064840;28;20840;-48
2021/10/14 00:22:35;;;;;;;1.60;1.40;;;18.30;52.60;;;;;;5070739;28;20261;-51
2021/10/14 00:25:06;;;;;;;2.20;1.63;;;18.40;52.70;;;;;;5070787;28;20293;-46
2021/10/14 00:27:37;;;;;;;1.92;1.50;;;18.40;52.70;;;;;;5064288;28;20319;-50
2021/10/14 00:30:08;;;;;;;3.05;1.60;;;18.40;52.60;;;;;;5071795;28;20218;-47
2021/10/14 00:32:38;;;;;;;2.55;1.45;;;18.40;52.50;;;;;;5069351;28;20906;-47
2021/10/14 00:35:12;;;;;;;2.17;1.70;;;18.50;52.30;;;;;;5077858;28;20285;-49
2021/10/14 00:37:42;;;;;;;2.47;1.63;;;18.50;52.20;;;;;;5072704;28;20227;-49
2021/10/14 00:40:14;;;;;;;2.17;1.67;;;18.50;52.10;;;;;;5071176;28;20246;-47
2021/10/14 00:42:46;;;;;;;2.45;1.70;;;18.50;52.00;;;;;;5070450;28;20309;-44
2021/10/14 00:45:17;;;;;;;2.35;1.50;;;18.60;52.00;;;;;;5072607;28;20233;-48
2021/10/14 00:47:47;;;;;;;3.38;1.90;;;18.50;51.90;;;;;;5071638;28;20453;-44
2021/10/14 00:50:20;;;;;;;3.30;1.50;;;18.60;51.90;;;;;;5074417;28;20242;-46
2021/10/14 00:52:51;;;;;;;2.35;1.50;;;18.60;51.80;;;;;;5072690;28;20230;-49
2021/10/14 00:55:22;;;;;;;3.17;1.35;;;18.60;51.70;;;;;;5070818;28;20581;-47
2021/10/14 00:57:52;;;;;;;1.90;1.42;;;18.60;51.70;;;;;;5067751;28;20230;-53
2021/10/14 01:00:23;;;;;;;1.23;1.13;;;18.60;51.70;;;;;;5069630;28;20305;-50
2021/10/14 01:02:54;;;;;;;2.15;1.58;;;18.70;51.70;;;;;;5071614;28;20310;-46
2021/10/14 01:05:26;;;;;;;2.40;1.50;;;18.60;51.60;;;;;;5071697;28;20234;-51
2021/10/14 01:07:56;;;;;;;2.05;1.45;;;18.70;51.60;;;;;;5079299;28;20281;-52
2021/10/14 01:10:27;;;;;;;2.20;1.45;;;18.70;51.60;;;;;;5076374;28;20305;-48
2021/10/14 01:12:59;;;;;;;2.88;1.38;;;18.70;51.50;;;;;;5078655;28;20289;-49
2021/10/14 01:15:29;;;;;;;2.33;1.35;;;18.80;51.60;;;;;;5078372;28;20724;-50
2021/10/14 01:18:00;;;;;;;1.50;1.13;;;18.80;51.50;;;;;;5070250;28;20727;-47
2021/10/14 01:20:33;;;;;;;2.38;1.52;;;18.80;51.50;;;;;;5076342;28;20631;-49
2021/10/14 01:23:03;;;;;;;1.98;1.48;;;18.80;51.50;;;;;;5072680;28;20720;-50
2021/10/14 01:25:34;;;;;;;2.45;1.50;;;18.80;51.40;;;;;;5083059;28;20234;-52
2021/10/14 01:28:05;;;;;;;1.67;1.25;;;18.80;51.40;;;;;;5076922;28;20194;-46
2021/10/14 01:30:35;;;;;;;3.25;1.40;;;18.80;51.40;;;;;;5074257;28;20302;-45
2021/10/14 01:33:06;;;;;;;3.03;1.30;;;18.90;51.40;;;;;;5073301;28;20282;-48
2021/10/14 01:35:38;;;;;;;1.90;1.23;;;18.90;51.30;;;;;;5089421;28;20286;-50
2021/10/14 01:38:08;;;;;;;2.17;1.70;;;18.90;51.30;;;;;;5074817;28;20199;-46
2021/10/14 01:40:39;;;;;;;3.53;1.45;;;18.90;51.90;;;;;;5071661;28;20304;-45
2021/10/14 01:43:15;;;;;;;2.35;1.48;;;18.90;51.30;;;;;;5075097;28;20787;-47
2021/10/14 01:45:45;;;;;;;1.27;1.17;;;19.00;51.40;;;;;;5071987;28;20585;-48
2021/10/14 01:48:16;;;;;;;1.77;1.38;;;19.00;51.40;;;;;;5076914;28;20254;-51
2021/10/14 01:50:48;;;;;;;3.50;1.48;;;19.00;51.50;;;;;;5072980;28;20708;-50
2021/10/14 01:53:18;;;;;;;2.75;1.50;;;19.00;51.60;;;;;;5073182;28;20287;-43
2021/10/14 01:55:49;;;;;;;2.22;1.33;;;19.00;51.50;;;;;;5072748;28;20230;-42
2021/10/14 01:58:20;;;;;;;2.90;1.30;;;19.10;51.50;;;;;;5077547;28;20669;-48
2021/10/14 02:00:52;;;;;;;1.60;1.10;;;19.10;51.50;;;;;;5074377;28;20219;-48
2021/10/14 02:03:23;;;;;;;2.38;1.38;;;19.10;51.50;;;;;;5074017;28;20280;-45
2021/10/14 02:05:55;;;;;;;1.67;1.20;;;19.10;51.50;;;;;;5086313;28;20230;-50
2021/10/14 02:08:26;;;;;;;1.42;1.10;;;19.20;51.50;;;;;;5077416;28;20688;-49
2021/10/14 02:10:56;;;;;;;2.00;1.20;;;19.20;51.50;;;;;;5073319;28;20246;-48
2021/10/14 02:13:26;;;;;;;2.67;1.20;;;19.20;51.50;;;;;;5071224;28;20245;-51
2021/10/14 02:15:57;;;;;;;2.30;1.20;;;19.20;51.30;;;;;;5073353;28;20670;-51
2021/10/14 02:18:27;;;;;;;1.88;1.02;;;19.20;51.30;;;;;;5091812;28;20252;-49
2021/10/14 02:21:00;;;;;;;2.58;0.90;;;19.30;51.50;;;;;;5074609;28;20258;-50
2021/10/14 02:23:30;;;;;;;2.40;0.85;;;19.30;51.50;;;;;;5072683;28;20320;-45
2021/10/14 02:26:01;;;;;;;1.55;1.10;;;19.30;51.60;;;;;;5070881;28;20230;-46
2021/10/14 02:28:31;;;;;;;2.78;1.15;;;19.30;51.60;;;;;;5072640;28;20234;-46
2021/10/14 02:31:02;;;;;;;1.83;1.25;;;19.40;51.70;;;;;;5079128;28;20254;-47
2021/10/14 02:33:32;;;;;;;2.08;0.88;;;19.40;51.70;;;;;;5072780;28;20238;-42
2021/10/14 02:36:04;;;;;;;1.98;0.98;;;19.40;51.60;;;;;;5064858;28;20661;-43
2021/10/14 02:38:35;;;;;;;2.15;1.10;;;19.40;51.50;;;;;;5076409;28;20221;-43
2021/10/14 02:41:05;;;;;;;1.75;1.10;;;19.40;51.50;;;;;;5071310;28;20246;-48
2021/10/14 02:43:36;;;;;;;1.88;1.10;;;19.50;51.60;;;;;;5073901;28;20297;-49
2021/10/14 02:46:06;;;;;;;1.95;1.05;;;19.50;51.60;;;;;;5071555;28;20734;-45
2021/10/14 02:48:37;;;;;;;1.20;0.90;;;19.50;51.60;;;;;;5093750;28;20237;-44
2021/10/14 02:51:09;;;;;;;1.45;0.90;;;19.60;51.50;;;;;;5072775;28;20724;-46
2021/10/14 02:53:40;;;;;;;2.40;1.33;;;19.60;51.40;;;;;;5070343;28;20282;-44
2021/10/14 02:56:10;;;;;;;1.42;1.10;;;19.60;51.30;;;;;;5068796;28;20243;-45
2021/10/14 02:58:41;;;;;;;1.63;1.00;;;19.60;51.20;;;;;;5069854;28;20261;-45
2021/10/14 03:01:11;;;;;;;1.65;0.90;;;19.70;51.20;;;;;;5073660;28;20623;-46
2021/10/14 03:03:42;;;;;;;0.82;0.80;;;19.70;51.10;;;;;;5072232;28;20258;-47
2021/10/14 03:06:14;;;;;;;1.20;0.90;;;19.80;51.20;;;;;;5068360;28;20294;-45
2021/10/14 03:08:44;;;;;;;1.42;0.80;;;19.80;51.20;;;;;;5071594;28;21750;-49
2021/10/14 03:11:15;;;;;;;1.92;0.75;;;19.80;51.20;;;;;;5070392;28;20297;-44
2021/10/14 03:13:45;;;;;;;1.45;1.00;;;19.80;51.00;;;;;;5072612;28;20274;-46
2021/10/14 03:16:16;;;;;;;2.55;0.98;;;19.80;51.00;;;;;;5071601;28;20286;-43
2021/10/14 03:18:48;;;;;;;2.10;1.05;;;19.90;50.90;;;;;;5079494;28;20341;-47
2021/10/14 03:21:21;;;;;;;1.40;0.85;;;19.90;50.80;;;;;;5078630;28;20248;-49
2021/10/14 03:23:52;;;;;;;1.30;0.80;;;19.90;50.90;;;;;;5073970;28;20258;-46
2021/10/14 03:26:22;;;;;;;1.65;0.93;;;20.00;51.00;;;;;;5083825;28;20198;-48
2021/10/14 03:28:53;;;;;;;1.33;0.80;;;20.00;50.70;;;;;;5087650;28;20229;-46
2021/10/14 03:31:24;;;;;;;1.58;0.98;;;20.00;50.50;;;;;;5068427;28;20195;-51
2021/10/14 03:33:56;;;;;;;1.10;0.80;;;20.10;50.60;;;;;;5074145;28;20289;-44
2021/10/14 03:36:28;;;;;;;1.70;0.70;;;20.10;50.50;;;;;;5070138;28;20548;-42
2021/10/14 03:38:59;;;;;;;0.98;0.70;;;20.20;50.40;;;;;;5073181;28;20293;-42
2021/10/14 03:41:29;;;;;;;1.65;0.90;;;20.20;50.10;;;;;;5071618;28;20256;-49
2021/10/14 03:44:00;;;;;;;1.50;0.63;;;20.20;50.10;;;;;;5073686;28;20254;-45
2021/10/14 03:46:37;;;;;;;1.65;0.88;;;20.20;49.90;;;;;;5077905;28;20832;-49
2021/10/14 03:49:08;;;;;;;1.48;0.68;;;20.20;49.80;;;;;;5082595;28;20195;-45
2021/10/14 03:51:40;;;;;;;1.13;0.65;;;20.20;49.90;;;;;;5071280;28;20207;-50
2021/10/14 03:54:11;;;;;;;1.10;0.65;;;20.20;49.90;;;;;;5074706;28;20234;-49
2021/10/14 03:56:41;;;;;;;2.45;0.75;;;20.20;49.90;;;;;;5083291;28;20206;-46
2021/10/14 03:59:12;;;;;;;1.20;0.60;;;20.20;49.80;;;;;;5096290;28;20767;-42
2021/10/14 04:02:06;;;;;;;1.40;0.68;;;20.20;49.80;;;;;;5086889;28;20290;-43
2021/10/14 04:04:39;;;;;;;0.90;0.47;;;20.20;49.90;;;;;;5068709;28;20210;-44
2021/10/14 04:07:12;;;;;;;1.02;0.65;;;20.20;49.70;;;;;;5085863;28;20195;-42
2021/10/14 04:09:43;;;;;;;3.28;0.60;;;20.20;49.40;;;;;;5073226;28;20215;-48
2021/10/14 04:12:14;;;;;;;2.80;0.60;;;20.20;49.40;;;;;;5068797;28;20194;-47
2021/10/14 04:14:44;;;;;;;2.03;0.47;;;20.10;49.40;;;;;;5069039;28;20195;-47
2021/10/14 04:17:15;;;;;;;1.10;0.63;;;20.10;48.90;;;;;;5072489;28;20262;-46
2021/10/14 04:19:46;;;;;;;0.95;0.57;;;20.10;48.50;;;;;;5070945;28;20214;-44
2021/10/14 04:22:19;;;;;;;1.42;0.88;;;20.20;48.30;;;;;;5071590;28;20209;-47
2021/10/14 04:24:50;;;;;;;1.48;0.80;;;20.20;48.20;;;;;;5073856;28;20222;-43
2021/10/14 04:27:21;;;;;;;0.50;0.50;;;20.10;48.10;;;;;;5074696;28;20201;-47
2021/10/14 04:29:52;;;;;;;1.23;0.63;;;20.10;48.10;;;;;;5070880;28;20222;-44
2021/10/14 04:32:22;;;;;;;0.50;0.50;;;20.20;48.20;;;;;;5070654;28;20201;-42
2021/10/14 04:34:54;;;;;;;1.20;0.63;;;20.10;48.20;;;;;;5071480;28;20240;-47
2021/10/14 04:37:26;;;;;;;1.38;0.60;;;20.20;48.30;;;;;;5068353;28;20775;-45
2021/10/14 04:39:57;;;;;;;0.70;0.60;;;20.10;48.20;;;;;;5071945;28;20226;-46
2021/10/14 04:42:28;;;;;;;0.90;0.60;;;20.10;48.20;;;;;;5070093;28;20203;-44
2021/10/14 04:44:58;;;;;;;0.90;0.60;;;20.10;48.20;;;;;;5071237;28;20283;-42
2021/10/14 04:47:29;;;;;;;0.57;0.50;;;20.10;48.40;;;;;;5070322;28;20205;-49
2021/10/14 04:49:59;;;;;;;0.52;0.50;;;20.10;48.40;;;;;;5091060;28;20218;-46
2021/10/14 04:52:32;;;;;;;0.85;0.60;;;20.20;48.50;;;;;;5068049;28;20199;-47
2021/10/14 04:55:03;;;;;;;1.73;0.80;;;20.10;48.40;;;;;;5076396;28;20203;-43
2021/10/14 04:57:33;;;;;;;0.70;0.68;;;20.10;48.40;;;;;;5077082;28;20647;-43
2021/10/14 05:00:04;;;;;;;1.33;0.63;;;20.20;48.40;;;;;;5076301;28;20223;-48
2021/10/14 05:02:35;;;;;;;1.25;0.60;;;20.20;48.50;;;;;;5073231;28;20203;-43
2021/10/14 05:05:06;;;;;;;1.27;0.50;;;20.20;48.40;;;;;;5081274;28;20222;-46
2021/10/14 05:07:38;;;;;;;0.70;0.55;;;20.20;48.40;;;;;;5079828;28;20198;-47
2021/10/14 05:10:09;;;;;;;0.50;0.47;;;20.20;48.40;;;;;;5081943;28;20211;-47
2021/10/14 05:12:40;;;;;;;0.70;0.50;;;20.20;48.40;;;;;;5074900;28;20199;-44
2021/10/14 05:15:12;;;;;;;0.77;0.60;;;20.20;48.40;;;;;;5074630;28;20207;-50
2021/10/14 05:17:43;;;;;;;1.08;0.50;;;20.20;48.40;;;;;;5077199;28;20245;-46
2021/10/14 05:20:14;;;;;;;0.55;0.50;;;20.20;48.40;;;;;;5075170;28;20215;-44
2021/10/14 05:22:46;;;;;;;1.05;0.50;;;20.20;48.40;;;;;;5073399;28;20195;-47
2021/10/14 05:25:17;;;;;;;0.85;0.63;;;20.20;48.30;;;;;;5073147;28;20758;-47
2021/10/14 05:27:48;;;;;;;0.52;0.52;;;20.20;48.30;;;;;;5076782;28;20229;-48
2021/10/14 05:30:19;;;;;;;0.73;0.50;;;20.20;48.40;;;;;;5075105;28;20280;-49
2021/10/14 05:32:49;;;;;;;0.82;0.50;;;20.20;48.40;;;;;;5072709;28;20249;-45
2021/10/14 05:35:20;;;;;;;0.40;0.40;;;20.20;48.40;;;;;;5086938;28;20239;-43
2021/10/14 05:37:52;;;;;;;0.57;0.50;;;20.30;48.60;;;;;;5079493;28;20206;-41
2021/10/14 05:40:23;;;;;;;1.27;0.50;;;20.30;48.50;;;;;;5084604;28;20705;-42
2021/10/14 05:42:54;;;;;;;0.73;0.60;;;20.30;48.50;;;;;;5078914;28;20203;-46
2021/10/14 05:45:24;;;;;;;0.65;0.50;;;20.30;48.50;;;;;;5072908;28;20272;-46
2021/10/14 05:47:55;;;;;;;1.38;0.50;;;20.30;48.40;;;;;;5074930;28;20218;-44
2021/10/14 05:50:26;;;;;;;2.42;0.70;;;20.30;48.40;;;;;;5081815;28;20276;-44
2021/10/14 05:52:58;;;;;;;0.55;0.55;;;20.30;48.30;;;;;;5072954;28;20285;-45
2021/10/14 05:55:28;;;;;;;0.95;0.80;;;20.30;48.30;;;;;;5081412;28;20238;-44
2021/10/14 05:57:59;;;;;;;1.67;0.90;;;20.30;48.30;;;;;;5074077;28;20705;-49
2021/10/14 06:03:40;;;;;;;1.85;0.90;;;20.30;48.40;;;;;;5047180;28;20217;-44
2021/10/14 06:06:10;;;;;;;1.20;0.73;;;20.30;48.40;;;;;;5083538;28;20685;-47
2021/10/14 06:08:43;;;;;;;0.73;0.60;;;20.30;48.40;;;;;;5079183;28;20218;-49
2021/10/14 06:11:14;;;;;;;1.25;1.15;;;20.30;48.50;;;;;;5089404;28;20740;-45
2021/10/14 06:13:44;;;;;;;1.27;0.90;;;20.30;48.50;;;;;;5087747;28;20277;-52
2021/10/14 06:16:15;;;;;;;2.55;1.40;;;20.30;48.60;;;;;;5071535;28;20240;-53
2021/10/14 06:18:45;;;;;;;1.58;0.98;;;20.30;48.60;;;;;;5071526;28;20234;-51
2021/10/14 06:21:16;;;;;;;2.15;1.10;;;20.30;48.50;;;;;;5073560;28;20306;-46
2021/10/14 06:23:48;;;;;;;3.53;1.42;;;20.30;48.50;;;;;;5078082;28;20642;-49
2021/10/14 06:26:19;;;;;;;1.50;1.30;;;20.30;48.60;;;;;;5072021;28;20309;-52
2021/10/14 06:28:49;;;;;;;1.63;1.05;;;20.20;48.40;;;;;;5071361;28;20286;-48
2021/10/14 06:31:20;;;;;;;1.50;1.10;;;20.30;48.50;;;;;;5072584;28;20283;-51
2021/10/14 06:33:50;;;;;;;1.38;0.88;;;20.20;48.50;;;;;;5073226;28;20281;-52
2021/10/14 06:36:21;;;;;;;3.53;2.67;;;20.20;48.60;;;;;;5075137;28;20259;-44
2021/10/14 06:38:53;;;;;;;6.07;4.13;;;20.20;49.00;;;;;;5073106;28;20260;-48
2021/10/14 06:41:24;;;;;;;6.40;4.13;;;20.20;49.70;;;;;;5070919;28;20227;-45
2021/10/14 06:43:54;;;;;;;7.25;4.65;;;20.20;50.20;;;;;;5070808;28;20232;-50
2021/10/14 06:46:25;;;;;;;7.35;4.43;;;20.20;50.50;;;;;;5068649;28;20257;-45
2021/10/14 06:48:55;;;;;;;6.70;3.67;;;20.20;50.70;;;;;;5074288;28;20241;-49
2021/10/14 06:51:26;;;;;;;4.35;3.17;;;20.20;50.30;;;;;;5070972;28;20229;-50
2021/10/14 06:53:58;;;;;;;4.03;3.10;;;20.20;50.20;;;;;;5087712;28;20600;-44
2021/10/14 06:56:29;;;;;;;5.95;3.60;;;20.20;50.10;;;;;;5070191;28;20361;-50
2021/10/14 06:58:59;;;;;;;4.53;3.30;;;20.20;50.10;;;;;;5071168;28;20307;-46
2021/10/14 07:01:30;;;;;;;4.30;3.13;;;20.20;50.10;;;;;;5070345;28;20290;-46
2021/10/14 07:04:01;;;;;;;3.92;3.38;;;20.10;50.10;;;;;;5074224;28;20662;-46
2021/10/14 07:06:31;;;;;;;3.88;2.90;;;20.10;50.20;;;;;;5077842;28;20254;-49
2021/10/14 07:09:04;;;;;;;4.00;2.95;;;20.10;50.10;;;;;;5069120;28;20230;-43
2021/10/14 07:11:40;;;;;;;4.15;2.88;;;20.10;50.10;;;;;;5074238;28;20230;-43
2021/10/14 07:14:11;;;;;;;4.47;2.88;;;20.10;50.10;;;;;;5070096;28;20195;-47
2021/10/14 07:16:42;;;;;;;5.10;2.95;;;20.10;50.10;;;;;;5071086;28;20191;-47
2021/10/14 07:19:12;;;;;;;3.72;2.90;;;20.00;49.90;;;;;;5068930;28;20254;-46
2021/10/14 07:21:43;;;;;;;5.18;2.97;;;20.00;50.00;;;;;;5073569;28;20277;-43
2021/10/14 07:24:16;;;;;;;3.50;2.55;;;20.00;50.00;;;;;;5070456;28;20230;-45
2021/10/14 07:26:46;;;;;;;6.43;2.95;;;19.90;49.90;;;;;;5071173;28;20195;-49
2021/10/14 07:29:17;;;;;;;5.05;2.90;;;19.90;50.00;;;;;;5087996;28;20653;-49
2021/10/14 07:31:47;;;;;;;4.70;2.60;;;19.90;50.00;;;;;;5073201;28;20235;-50
2021/10/14 07:34:18;;;;;;;3.30;2.40;;;19.90;50.00;;;;;;5073678;28;20248;-48
2021/10/14 07:36:48;;;;;;;5.90;2.70;;;19.90;50.00;;;;;;5070999;28;20252;-48
2021/10/14 07:39:21;;;;;;;3.28;2.42;;;19.80;49.90;;;;;;5072567;28;20247;-44
2021/10/14 07:41:51;;;;;;;3.85;2.08;;;19.80;50.00;;;;;;5071872;28;20285;-52
2021/10/14 07:44:22;;;;;;;3.67;2.58;;;19.80;49.90;;;;;;5075847;28;20695;-50
2021/10/14 07:46:53;;;;;;;4.07;2.30;;;19.70;49.90;;;;;;5077789;28;20282;-58
2021/10/14 07:49:24;;;;;;;3.92;2.17;;;19.70;50.00;;;;;;5072510;28;20246;-44
2021/10/14 07:51:54;;;;;;;3.25;2.22;;;19.70;50.00;;;;;;5072615;28;20233;-46
2021/10/14 07:54:26;;;;;;;3.65;2.50;;;19.60;49.90;;;;;;5071568;28;20647;-46
2021/10/14 07:56:57;;;;;;;3.83;2.30;;;19.60;49.90;;;;;;5071416;28;20294;-49
2021/10/14 07:59:28;;;;;;;2.17;1.73;;;19.60;49.90;;;;;;5072933;28;20869;-47
2021/10/14 08:01:59;;;;;;;3.40;2.20;;;19.60;49.90;;;;;;5071386;28;20233;-42
2021/10/14 08:04:29;;;;;;;3.42;2.20;;;19.50;49.90;;;;;;5071179;28;20248;-46
2021/10/14 08:07:00;;;;;;;3.28;2.40;;;19.50;49.90;;;;;;5089061;28;20225;-42
2021/10/14 08:09:33;;;;;;;3.40;2.10;;;19.50;49.90;;;;;;5070283;28;20642;-46
2021/10/14 08:12:05;;;;;;;2.42;1.77;;;19.40;49.90;;;;;;5070853;28;20277;-45
2021/10/14 08:14:35;;;;;;;2.72;1.98;;;19.40;49.90;;;;;;5071977;28;20228;-46
2021/10/14 08:17:05;;;;;;;5.05;2.10;;;19.40;49.90;;;;;;5079935;28;20629;-44
2021/10/14 08:19:36;;;;;;;2.58;1.85;;;19.40;50.00;;;;;;5072927;28;20250;-49
2021/10/14 08:22:06;;;;;;;4.20;2.10;;;19.30;49.90;;;;;;5071595;28;20577;-45
2021/10/14 08:24:40;;;;;;;2.60;2.00;;;19.30;50.00;;;;;;5071069;28;20234;-42
2021/10/14 08:27:10;;;;;;;3.40;2.20;;;19.30;50.00;;;;;;5072338;28;20195;-46
2021/10/14 08:29:41;;;;;;;3.15;1.80;;;19.20;50.00;;;;;;5072500;28;20246;-47
2021/10/14 08:32:11;;;;;;;2.42;1.65;;;19.20;50.00;;;;;;5072245;28;20233;-43
2021/10/14 08:34:42;;;;;;;2.20;2.00;;;19.20;50.00;;;;;;5067554;28;20317;-49
2021/10/14 08:37:12;;;;;;;2.50;2.05;;;19.20;50.10;;;;;;5085124;28;20282;-45
2021/10/14 08:39:44;;;;;;;2.70;1.70;;;19.20;50.30;;;;;;5084718;28;20249;-45
2021/10/14 08:42:15;;;;;;;7.22;2.05;;;19.10;50.30;;;;;;5066528;28;20233;-47
2021/10/14 08:44:45;;;;;;;7.15;2.50;;;19.10;50.40;;;;;;5070174;28;20268;-45
2021/10/14 08:47:17;;;;;;;4.15;2.47;;;19.10;50.50;;;;;;5071161;28;20308;-49
2021/10/14 08:49:52;;;;;;;5.55;2.53;;;19.10;50.50;;;;;;5077436;28;20309;-46
2021/10/14 08:52:23;;;;;;;4.07;2.72;;;19.10;50.50;;;;;;5074667;28;20268;-45
2021/10/14 08:54:55;;;;;;;6.80;2.63;;;19.00;50.50;;;;;;5081370;28;20226;-51
2021/10/14 08:57:26;;;;;;;5.05;2.85;;;19.00;50.60;;;;;;5084059;28;20233;-50
2021/10/14 08:59:57;;;;;;;8.13;3.15;;;19.00;50.70;;;;;;5079097;28;20232;-48
2021/10/14 09:02:29;;;;;;;7.80;2.92;;;19.00;50.80;;;;;;5080025;28;20238;-47
2021/10/14 09:05:03;;;;;;;6.82;2.70;;;18.90;50.80;;;;;;5070752;28;20201;-46
2021/10/14 09:07:35;;;;;;;5.40;2.70;;;18.90;50.90;;;;;;5075418;28;20256;-43
2021/10/14 09:10:11;;;;;;;8.52;3.17;;;18.90;50.90;;;;;;5078995;28;20222;-44
2021/10/14 09:12:43;;;;;;;4.88;2.85;;;18.90;51.00;;;;;;5069579;28;20195;-43
2021/10/14 09:15:14;;;;;;;5.07;2.72;;;18.90;51.00;;;;;;5069329;28;20227;-48
2021/10/14 09:17:55;;;;;;;5.97;2.75;;;18.80;51.00;;;;;;5071232;28;20249;-47
2021/10/14 09:20:37;;;;;;;5.43;2.70;;;18.80;51.00;;;;;;5068966;28;20246;-43
2021/10/14 09:23:10;;;;;;;6.97;2.95;;;18.80;51.00;;;;;;5071770;28;20697;-45
2021/10/14 09:25:44;;;;;;;4.93;3.28;;;18.80;51.00;;;;;;5069563;28;20246;-44
2021/10/14 09:28:18;;;;;;;6.22;3.13;;;18.80;51.00;;;;;;5069975;28;20241;-49
2021/10/14 09:30:54;;;;;;;6.47;3.50;;;18.70;51.60;;;;;;5068656;28;20254;-45
2021/10/14 09:33:37;;;;;;;5.20;3.00;;;18.70;51.00;;;;;;5070727;28;20284;-44
2021/10/14 09:36:19;;;;;;;7.53;3.50;;;18.60;51.00;;;;;;5091356;28;20285;-47
2021/10/14 09:38:52;;;;;;;6.75;3.03;;;18.60;51.00;;;;;;5082964;28;20203;-45
2021/10/14 09:41:28;;;;;;;7.05;3.42;;;18.60;51.10;;;;;;5072330;28;20279;-45
2021/10/14 09:44:05;;;;;;;6.82;3.75;;;18.60;51.00;;;;;;5071775;28;20253;-43
2021/10/14 09:46:38;;;;;;;6.93;3.75;;;18.50;51.00;;;;;;5084103;28;20218;-44
2021/10/14 09:49:14;;;;;;;6.75;3.70;;;18.50;51.10;;;;;;5074917;28;20226;-42
2021/10/14 09:51:45;;;;;;;6.47;3.63;;;18.50;51.20;;;;;;5074247;28;20674;-47
2021/10/14 09:54:16;;;;;;;5.72;3.20;;;18.50;51.30;;;;;;5072368;28;20211;-42
2021/10/14 09:56:49;;;;;;;5.82;3.60;;;18.50;51.30;;;;;;5073521;28;20671;-45
2021/10/14 09:59:20;;;;;;;7.45;3.78;;;18.40;51.30;;;;;;5074261;28;20215;-43
2021/10/14 10:01:51;;;;;;;7.05;3.28;;;18.40;51.30;;;;;;5074926;28;20290;-42
2021/10/14 10:04:26;;;;;;;4.88;3.58;;;18.40;51.30;;;;;;5075214;28;20241;-45
2021/10/14 10:06:59;;;;;;;6.38;3.67;;;18.40;51.30;;;;;;5086898;28;20257;-45
2021/10/14 10:09:33;;;;;;;5.55;3.38;;;18.30;51.20;;;;;;5087784;28;20254;-45
2021/10/14 10:12:10;;;;;;;6.88;3.53;;;18.30;51.20;;;;;;5077127;28;20650;-45
2021/10/14 10:14:41;;;;;;;5.32;3.42;;;18.30;51.20;;;;;;5075749;28;20293;-41
2021/10/14 10:17:14;;;;;;;5.78;3.70;;;18.30;51.20;;;;;;5076079;28;20226;-44
2021/10/14 10:19:46;;;;;;;6.63;3.55;;;18.20;51.20;;;;;;5101320;28;20250;-45
2021/10/14 10:22:51;;;;;;;6.65;3.88;;;18.20;51.20;;;;;;5073152;28;20282;-47
2021/10/14 10:25:37;;;;;;;6.05;3.72;;;18.10;51.20;;;;;;5071257;28;20202;-44
2021/10/14 10:28:29;;;;;;;5.28;3.85;;;18.10;51.10;;;;;;5070568;28;20218;-44
2021/10/14 10:31:00;;;;;;;6.32;3.55;;;18.00;51.10;;;;;;5072768;28;20311;-44
2021/10/14 10:33:51;;;;;;;6.28;4.07;;;18.00;51.10;;;;;;5071828;28;20231;-47
2021/10/14 10:36:51;;;;;;;5.38;3.88;;;18.00;51.10;;;;;;5078804;28;20686;-47
2021/10/14 10:39:46;;;;;;;5.53;3.95;;;18.00;51.20;;;;;;5086802;28;20694;-49
2021/10/14 10:42:19;;;;;;;6.43;3.47;;;17.90;51.10;;;;;;5072330;28;20195;-50
2021/10/14 10:44:52;;;;;;;6.85;3.78;;;17.90;51.10;;;;;;5077238;28;20221;-52
2021/10/14 10:47:41;;;;;;;5.07;3.25;;;17.90;51.20;;;;;;5085456;28;20259;-47
2021/10/14 10:50:13;;;;;;;4.85;3.30;;;17.90;51.20;;;;;;5077815;28;20250;-50
2021/10/14 10:52:46;;;;;;;5.97;4.13;;;17.80;51.20;;;;;;5073282;28;20286;-47
2021/10/14 10:55:50;;;;;;;5.13;3.50;;;17.80;51.20;;;;;;5071740;28;20276;-51
2021/10/14 10:58:49;;;;;;;6.05;3.58;;;17.80;51.20;;;;;;5067984;28;20286;-45
2021/10/14 11:01:22;;;;;;;5.00;3.30;;;17.70;51.20;;;;;;5070246;28;20241;-51
2021/10/14 11:03:55;;;;;;;5.20;3.22;;;17.70;51.20;;;;;;5082603;28;20226;-52
2021/10/14 11:06:27;;;;;;;4.80;3.40;;;17.70;51.20;;;;;;5079373;28;20318;-53
2021/10/14 11:09:03;;;;;;;4.45;2.90;;;17.70;51.20;;;;;;5072117;28;20282;-50
2021/10/14 11:11:35;;;;;;;4.45;3.15;;;17.60;51.20;;;;;;5078720;28;20221;-55
2021/10/14 11:14:07;;;;;;;5.65;3.25;;;17.60;51.20;;;;;;5084913;28;20260;-46
2021/10/14 11:16:40;;;;;;;4.85;3.28;;;17.60;51.20;;;;;;5073503;28;20226;-45
2021/10/14 11:19:18;;;;;;;4.28;3.00;;;17.50;51.20;;;;;;5072243;28;20223;-50
2021/10/14 11:21:49;;;;;;;5.90;3.35;;;17.50;51.20;;;;;;5072280;28;20228;-52
2021/10/14 11:24:20;;;;;;;5.35;3.30;;;17.50;51.20;;;;;;5072250;28;20252;-53
2021/10/14 11:26:50;;;;;;;4.25;3.00;;;17.50;51.20;;;;;;5074422;28;20713;-50
2021/10/14 11:29:24;;;;;;;5.68;3.17;;;17.50;51.20;;;;;;5072112;28;20276;-52
2021/10/14 11:32:05;;;;;;;5.05;3.05;;;17.40;51.20;;;;;;5071178;28;20626;-52
2021/10/14 11:34:37;;;;;;;6.00;3.40;;;17.40;51.20;;;;;;5083055;28;20195;-51
2021/10/14 11:37:09;;;;;;;3.47;2.78;;;17.40;51.20;;;;;;5072641;28;20210;-53
2021/10/14 11:39:41;;;;;;;4.28;2.70;;;17.40;51.20;;;;;;5067010;28;20594;-49
2021/10/14 11:42:12;;;;;;;5.05;3.40;;;17.30;51.10;;;;;;5082071;28;20284;-50
2021/10/14 11:44:47;;;;;;;4.88;3.08;;;17.30;51.20;;;;;;5075470;28;20233;-54
2021/10/14 11:47:20;;;;;;;3.47;2.65;;;17.30;51.20;;;;;;5070018;28;20229;-51
2021/10/14 11:50:04;;;;;;;3.97;2.92;;;17.30;51.20;;;;;;5080908;28;20245;-52
2021/10/14 11:52:34;;;;;;;3.65;2.78;;;17.20;51.10;;;;;;5082451;28;20256;-49
2021/10/14 11:55:06;;;;;;;4.30;2.97;;;17.20;51.10;;;;;;5072585;28;20226;-54
2021/10/14 11:57:38;;;;;;;4.10;2.78;;;17.20;51.10;;;;;;5070729;28;20474;-51
2021/10/14 12:00:10;;;;;;;4.63;2.47;;;17.20;51.20;;;;;;5072137;28;20306;-50
2021/10/14 12:02:43;;;;;;;3.67;2.47;;;17.10;51.20;;;;;;5072681;28;20617;-47
2021/10/14 12:05:14;;;;;;;3.53;2.90;;;17.10;51.10;;;;;;5071179;28;20231;-49
2021/10/14 12:07:46;;;;;;;3.17;2.80;;;17.10;51.20;;;;;;5072539;28;20276;-45
2021/10/14 12:10:34;;;;;;;3.90;2.80;;;17.10;51.20;;;;;;5074472;28;20622;-50
2021/10/14 12:13:06;;;;;;;3.70;2.47;;;17.00;51.20;;;;;;5071395;28;20702;-50
2021/10/14 12:15:37;;;;;;;3.50;2.72;;;17.00;51.20;;;;;;5070419;28;20230;-48
2021/10/14 12:18:11;;;;;;;3.95;2.75;;;17.00;51.20;;;;;;5088113;28;20624;-50
2021/10/14 12:20:42;;;;;;;3.67;2.50;;;16.90;51.20;;;;;;5067233;28;20218;-49
2021/10/14 12:23:12;;;;;;;4.15;2.60;;;16.90;51.20;;;;;;5069596;28;20277;-49
2021/10/14 12:25:43;;;;;;;3.22;2.33;;;16.90;51.20;;;;;;5071111;28;20285;-53
2021/10/14 12:28:25;;;;;;;3.78;2.60;;;16.90;51.20;;;;;;5081415;28;20286;-53
2021/10/14 12:31:11;;;;;;;4.75;2.78;;;16.90;51.20;;;;;;5072813;28;20253;-49
2021/10/14 12:33:44;;;;;;;3.70;2.30;;;16.80;51.10;;;;;;5081802;28;20198;-50
2021/10/14 12:36:15;;;;;;;3.78;2.45;;;16.80;51.10;;;;;;5073118;28;20294;-52
2021/10/14 12:38:46;;;;;;;2.80;2.13;;;16.80;51.20;;;;;;5078993;28;20237;-50
2021/10/14 12:41:17;;;;;;;3.58;2.45;;;16.70;51.10;;;;;;5074415;28;20246;-49
2021/10/14 12:43:51;;;;;;;2.92;2.22;;;16.70;51.10;;;;;;5070897;28;20230;-49
2021/10/14 12:46:28;;;;;;;3.78;2.30;;;16.70;51.20;;;;;;5070255;28;20249;-51
2021/10/14 12:49:27;;;;;;;3.13;2.13;;;16.60;51.10;;;;;;5078539;28;20740;-45
2021/10/14 12:51:58;;;;;;;4.22;2.60;;;16.60;51.20;;;;;;5071599;28;20277;-51
2021/10/14 12:54:30;;;;;;;3.40;2.53;;;16.60;51.20;;;;;;5069196;28;20724;-47
2021/10/14 12:57:03;;;;;;;2.97;2.30;;;16.60;51.20;;;;;;5071037;28;20286;-52
2021/10/14 12:59:37;;;;;;;3.58;2.63;;;16.60;51.30;;;;;;5078235;28;20229;-47
2021/10/14 13:02:08;;;;;;;2.67;2.00;;;16.60;51.30;;;;;;5072432;28;20286;-46
2021/10/14 13:04:40;;;;;;;4.22;2.65;;;16.50;51.30;;;;;;5076814;28;20225;-52
2021/10/14 13:07:11;;;;;;;3.30;2.75;;;16.50;51.30;;;;;;5069138;28;20250;-49
2021/10/14 13:09:41;;;;;;;3.22;2.67;;;16.50;51.30;;;;;;5069915;28;20242;-47
2021/10/14 13:12:12;;;;;;;4.13;2.92;;;16.40;51.20;;;;;;5070080;28;20282;-45
2021/10/14 13:14:42;;;;;;;3.72;2.50;;;16.50;51.30;;;;;;5069037;28;20221;-45
2021/10/14 13:17:13;;;;;;;3.13;2.50;;;16.40;51.20;;;;;;5074001;28;20238;-49
2021/10/14 13:19:46;;;;;;;3.15;2.50;;;16.40;51.20;;;;;;5074697;28;20737;-47